Time;durP1;ratioP1;P1;durP2;ratioP2;P2;SDS_P1;SDS_P2;PMS_P1;PMS_P2;Temp;Humidity;BMP_temperature;BMP_pressure;BME280_temperature;BME280_humidity;BME280_pressure;Samples;Min_cycle;Max_cycle;Signal;HPM_P1;HPM_P2
2022/10/12 00:00:58;;;;;;;33.63;22.23;;;;;;;19.61;100.00;96931.69;4967205;28;20074;-41
2022/10/12 00:03:27;;;;;;;34.50;22.15;;;;;;;19.60;100.00;96935.34;4963899;28;20125;-43
2022/10/12 00:06:02;;;;;;;35.45;21.45;;;;;;;20.00;100.00;96919.72;4961417;28;20101;-40
2022/10/12 00:08:33;;;;;;;34.33;22.15;;;;;;;19.87;100.00;96924.94;4970404;28;20074;-45
2022/10/12 00:11:02;;;;;;;39.92;22.17;;;;;;;20.03;100.00;96927.38;4968203;28;20079;-43
2022/10/12 00:13:30;;;;;;;35.10;22.42;;;;;;;20.05;100.00;96925.31;4965103;28;20086;-42
2022/10/12 00:16:02;;;;;;;37.25;22.50;;;;;;;20.19;100.00;96925.44;4963976;28;20079;-42
2022/10/12 00:18:31;;;;;;;33.83;22.30;;;;;;;20.00;100.00;96932.28;4959603;28;20078;-41
2022/10/12 00:21:03;;;;;;;33.78;22.40;;;;;;;20.22;100.00;96922.38;4965123;28;20093;-46
2022/10/12 00:23:33;;;;;;;34.80;21.98;;;;;;;20.31;100.00;96927.38;4963368;28;20588;-47
2022/10/12 00:26:02;;;;;;;40.58;22.38;;;;;;;20.29;100.00;96924.06;4966205;28;20147;-44
2022/10/12 00:28:31;;;;;;;31.75;21.38;;;;;;;20.28;100.00;96925.09;4958369;28;20086;-41
2022/10/12 00:30:59;;;;;;;35.47;22.48;;;;;;;20.03;100.00;96924.69;4961076;28;20082;-46
2022/10/12 00:33:28;;;;;;;29.92;22.23;;;;;;;20.17;100.00;96922.13;4961473;28;21061;-42
2022/10/12 00:35:56;;;;;;;33.95;22.48;;;;;;;19.99;100.00;96919.91;4965146;28;20082;-41
2022/10/12 00:38:24;;;;;;;33.67;21.55;;;;;;;19.74;100.00;96916.78;4958644;28;20086;-42
2022/10/12 00:40:54;;;;;;;36.10;22.27;;;;;;;19.99;100.00;96917.22;4968213;28;20081;-44
2022/10/12 00:43:30;;;;;;;34.45;21.55;;;;;;;19.88;100.00;96914.03;4964309;28;20074;-45
2022/10/12 00:45:59;;;;;;;41.28;23.00;;;;;;;19.88;100.00;96919.38;4968370;28;20086;-42
2022/10/12 00:48:28;;;;;;;33.80;22.02;;;;;;;19.78;100.00;96915.38;4966986;28;20047;-42
2022/10/12 00:50:57;;;;;;;32.05;21.42;;;;;;;19.73;100.00;96910.63;4965313;28;20089;-49
2022/10/12 00:53:27;;;;;;;35.13;23.27;;;;;;;19.45;100.00;96914.00;4967052;28;20089;-43
2022/10/12 00:56:01;;;;;;;35.30;23.05;;;;;;;19.63;100.00;96910.94;4969353;28;20074;-43
2022/10/12 00:58:30;;;;;;;30.58;21.73;;;;;;;19.90;100.00;96911.19;4968266;28;20090;-44
2022/10/12 01:01:00;;;;;;;32.75;23.67;;;;;;;19.96;100.00;96918.47;4956493;28;20491;-42
2022/10/12 01:03:28;;;;;;;;;;;;;;;20.33;100.00;96911.94;4962623;28;20544;-41
2022/10/12 01:05:57;;;;;;;32.10;22.02;;;;;;;19.90;100.00;96909.34;4959521;28;20658;-44
2022/10/12 01:08:25;;;;;;;36.50;22.08;;;;;;;20.02;100.00;96908.81;4965065;28;20078;-46
2022/10/12 01:10:54;;;;;;;31.92;22.73;;;;;;;19.79;100.00;96909.03;4964591;28;20074;-40
2022/10/12 01:13:23;;;;;;;36.08;23.05;;;;;;;19.61;100.00;96909.41;4960071;28;20095;-44
2022/10/12 01:15:55;;;;;;;37.00;23.37;;;;;;;20.18;100.00;96908.53;4964894;28;20085;-42
2022/10/12 01:18:29;;;;;;;37.15;22.58;;;;;;;20.06;100.00;96912.75;4965096;28;20086;-42
2022/10/12 01:21:02;;;;;;;33.70;22.55;;;;;;;20.18;100.00;96919.25;4963595;28;20082;-41
2022/10/12 01:24:05;;;;;;;36.53;22.73;;;;;;;20.31;100.00;96908.63;4962592;28;20083;-42
2022/10/12 01:26:50;;;;;;;33.88;22.15;;;;;;;19.92;100.00;96907.31;4962404;28;20074;-42
2022/10/12 01:29:35;;;;;;;36.53;22.83;;;;;;;20.28;100.00;96908.19;4961617;28;20094;-43
2022/10/12 01:32:09;;;;;;;34.25;23.05;;;;;;;20.29;100.00;96913.34;4960249;28;20331;-44
2022/10/12 01:34:44;;;;;;;33.53;21.98;;;;;;;20.25;100.00;96909.41;4968196;28;20081;-46
2022/10/12 01:37:17;;;;;;;31.13;21.85;;;;;;;19.78;100.00;96912.72;4969010;28;20478;-44
2022/10/12 01:39:50;;;;;;;31.67;21.77;;;;;;;20.23;100.00;96911.44;4965823;28;20098;-48
2022/10/12 01:42:21;;;;;;;34.10;22.92;;;;;;;20.12;100.00;96917.34;4965200;28;20050;-45
2022/10/12 01:44:50;;;;;;;36.13;23.55;;;;;;;20.10;100.00;96917.53;4970718;28;20097;-41
2022/10/12 01:47:20;;;;;;;30.90;22.30;;;;;;;19.95;100.00;96906.06;4968635;28;20529;-41
2022/10/12 01:49:48;;;;;;;34.75;22.92;;;;;;;19.94;100.00;96916.97;4977496;28;20074;-41
2022/10/12 01:52:28;;;;;;;35.70;23.80;;;;;;;20.26;100.00;96919.09;4959564;28;20094;-43
2022/10/12 01:55:22;;;;;;;33.22;22.92;;;;;;;20.14;100.00;96913.44;4959919;28;20454;-44
2022/10/12 01:57:58;;;;;;;33.75;22.27;;;;;;;20.09;100.00;96913.19;4963164;28;20477;-43
2022/10/12 02:00:27;;;;;;;39.05;23.60;;;;;;;20.12;100.00;96910.13;4967210;28;20094;-42
2022/10/12 02:03:01;;;;;;;36.60;23.58;;;;;;;19.73;100.00;96915.16;4960186;28;20100;-42
2022/10/12 02:05:37;;;;;;;33.92;23.63;;;;;;;20.27;100.00;96909.25;4965414;28;20081;-43
2022/10/12 02:08:10;;;;;;;33.60;22.92;;;;;;;20.13;100.00;96910.94;4965404;28;20083;-42
2022/10/12 02:10:44;;;;;;;32.60;22.85;;;;;;;20.14;100.00;96913.44;4960850;28;20588;-43
2022/10/12 02:13:13;;;;;;;34.78;22.90;;;;;;;19.95;100.00;96921.31;4966702;28;20093;-41
2022/10/12 02:15:43;;;;;;;35.72;24.10;;;;;;;20.41;100.00;96916.34;4962227;28;20094;-41
2022/10/12 02:18:17;;;;;;;38.17;23.67;;;;;;;20.58;100.00;96922.25;4959488;28;20093;-45
2022/10/12 02:20:47;;;;;;;34.05;23.92;;;;;;;20.41;100.00;96923.56;4957255;28;20506;-43
2022/10/12 02:23:16;;;;;;;39.05;25.15;;;;;;;19.88;100.00;96924.75;4961238;28;20486;-47
2022/10/12 02:25:45;;;;;;;39.72;24.63;;;;;;;19.87;100.00;96920.41;4955477;28;20083;-40
2022/10/12 02:28:16;;;;;;;37.97;24.30;;;;;;;19.27;100.00;96929.66;4959074;28;20086;-41
2022/10/12 02:30:48;;;;;;;42.63;24.30;;;;;;;20.17;100.00;96912.25;4957088;28;20186;-42
2022/10/12 02:33:23;;;;;;;40.47;25.17;;;;;;;19.64;100.00;96911.75;4959840;28;20097;-42
2022/10/12 02:35:56;;;;;;;41.00;25.42;;;;;;;19.50;100.00;96915.28;4958149;28;20169;-44
2022/10/12 02:38:27;;;;;;;39.22;26.25;;;;;;;19.42;100.00;96916.22;4955760;28;20352;-44
2022/10/12 02:40:58;;;;;;;40.25;25.13;;;;;;;19.44;100.00;96914.19;4973931;28;20074;-42
2022/10/12 02:43:31;;;;;;;43.45;26.35;;;;;;;19.84;100.00;96911.94;4964913;28;20067;-45
2022/10/12 02:46:00;;;;;;;45.90;26.58;;;;;;;19.16;100.00;96914.88;4962415;28;20082;-41
2022/10/12 02:48:30;;;;;;;49.10;25.73;;;;;;;19.61;100.00;96904.91;4967581;28;20723;-42
2022/10/12 02:50:58;;;;;;;50.85;26.77;;;;;;;19.33;100.00;96910.16;4956337;28;20123;-47
2022/10/12 02:53:28;;;;;;;46.40;25.95;;;;;;;19.76;100.00;96899.53;4959829;28;20771;-44
2022/10/12 02:56:01;;;;;;;49.30;26.33;;;;;;;19.34;100.00;96903.81;4960927;28;20081;-41
2022/10/12 02:58:29;;;;;;;42.10;26.02;;;;;;;18.91;100.00;96895.66;4958748;28;20058;-44
2022/10/12 03:00:58;;;;;;;49.88;26.02;;;;;;;18.78;100.00;96898.16;4965825;28;20054;-41
2022/10/12 03:03:26;;;;;;;57.00;26.77;;;;;;;19.25;100.00;96896.09;4961062;28;20182;-41
2022/10/12 03:05:56;;;;;;;46.95;26.05;;;;;;;19.65;100.00;96894.69;4968034;28;20084;-44
2022/10/12 03:08:24;;;;;;;50.27;26.83;;;;;;;19.60;100.00;96894.38;4959759;28;20737;-42
2022/10/12 03:10:52;;;;;;;51.72;28.23;;;;;;;19.21;100.00;96895.63;4956067;28;20094;-44
2022/10/12 03:13:20;;;;;;;53.47;27.73;;;;;;;19.55;100.00;96891.47;4961228;28;20082;-41
2022/10/12 03:15:49;;;;;;;52.25;28.05;;;;;;;19.46;100.00;96898.78;4965971;28;20074;-42
2022/10/12 03:18:17;;;;;;;57.95;29.33;;;;;;;19.12;100.00;96894.06;4959757;28;20119;-43
2022/10/12 03:20:48;;;;;;;60.67;29.23;;;;;;;19.46;100.00;96893.44;4963433;28;20560;-41
2022/10/12 03:23:17;;;;;;;53.13;28.58;;;;;;;19.34;100.00;96901.13;4961836;28;20121;-43
2022/10/12 03:25:46;;;;;;;52.92;27.98;;;;;;;19.61;100.00;96888.88;4956997;28;20075;-41
2022/10/12 03:28:14;;;;;;;53.63;28.45;;;;;;;19.86;100.00;96896.53;4961477;28;20094;-42
2022/10/12 03:30:42;;;;;;;69.32;29.77;;;;;;;19.53;100.00;96898.84;4956117;28;20078;-45
2022/10/12 03:33:11;;;;;;;60.78;29.30;;;;;;;19.85;100.00;96890.31;4960664;28;20094;-40
2022/10/12 03:35:39;;;;;;;62.40;29.48;;;;;;;19.62;100.00;96905.75;4967869;28;20043;-40
2022/10/12 03:38:07;;;;;;;57.10;28.80;;;;;;;19.78;100.00;96891.28;4963654;28;20094;-44
2022/10/12 03:40:37;;;;;;;54.22;29.30;;;;;;;20.31;100.00;96895.25;4967712;28;20085;-45
2022/10/12 03:43:06;;;;;;;56.80;28.50;;;;;;;20.51;100.00;96892.75;4965767;28;20116;-39
2022/10/12 03:45:34;;;;;;;60.05;28.25;;;;;;;20.08;100.00;96900.84;4972702;28;20082;-43
2022/10/12 03:48:02;;;;;;;51.88;27.33;;;;;;;20.51;100.00;96900.78;4969086;28;20123;-44
2022/10/12 03:50:33;;;;;;;61.28;29.45;;;;;;;20.68;100.00;96903.13;4962127;28;20085;-42
2022/10/12 03:53:02;;;;;;;57.13;28.77;;;;;;;20.57;100.00;96899.97;4959928;28;20078;-43
2022/10/12 03:55:31;;;;;;;62.00;29.15;;;;;;;20.60;100.00;96904.94;4967532;28;20086;-39
2022/10/12 03:58:00;;;;;;;70.97;28.98;;;;;;;20.71;100.00;96908.09;4961120;28;20109;-44
2022/10/12 04:00:28;;;;;;;60.65;29.38;;;;;;;20.50;100.00;96907.13;4962217;28;20089;-39
2022/10/12 04:02:57;;;;;;;64.20;28.92;;;;;;;20.59;100.00;96907.81;4964206;28;20083;-44
2022/10/12 04:05:25;;;;;;;67.10;29.02;;;;;;;20.50;100.00;96901.78;4964463;28;20089;-46
2022/10/12 04:07:53;;;;;;;64.28;30.27;;;;;;;20.24;100.00;96913.13;4962077;28;20110;-46
2022/10/12 04:10:22;;;;;;;62.67;28.42;;;;;;;19.90;100.00;96906.66;4967080;28;20086;-49
2022/10/12 04:12:50;;;;;;;58.72;29.58;;;;;;;19.80;100.00;96916.03;4962063;28;20495;-38
2022/10/12 04:15:20;;;;;;;53.42;28.00;;;;;;;19.91;100.00;96902.13;4969250;28;20112;-41
2022/10/12 04:17:49;;;;;;;;;;;;;;;20.42;100.00;96904.59;4962122;28;20066;-40
2022/10/12 04:20:17;;;;;;;55.95;26.88;;;;;;;20.54;100.00;96907.56;4958977;28;22149;-42
2022/10/12 04:22:45;;;;;;;54.72;28.05;;;;;;;20.45;100.00;96909.56;4965906;28;20086;-41
2022/10/12 04:25:14;;;;;;;58.45;28.05;;;;;;;20.57;100.00;96908.00;4966843;28;20082;-41
2022/10/12 04:27:42;;;;;;;65.05;28.45;;;;;;;20.57;100.00;96902.66;4959370;28;20078;-44
2022/10/12 04:30:11;;;;;;;59.05;28.77;;;;;;;20.57;100.00;96913.38;4961832;28;20091;-41
2022/10/12 04:32:41;;;;;;;54.88;28.98;;;;;;;20.48;100.00;96911.84;4968684;28;20078;-42
2022/10/12 04:35:09;;;;;;;62.28;28.55;;;;;;;20.28;100.00;96913.56;4967905;28;20082;-41
2022/10/12 04:37:37;;;;;;;59.40;28.27;;;;;;;19.93;100.00;96918.84;4964227;28;20086;-42
2022/10/12 04:40:07;;;;;;;65.05;30.17;;;;;;;19.87;100.00;96911.56;4961354;28;20082;-46
2022/10/12 04:42:36;;;;;;;57.65;27.15;;;;;;;19.61;100.00;96917.44;4969851;28;20086;-45
2022/10/12 04:45:05;;;;;;;54.20;27.98;;;;;;;19.26;100.00;96913.78;4963747;28;20121;-41
2022/10/12 04:47:33;;;;;;;56.17;29.55;;;;;;;19.17;100.00;96913.06;4966459;28;20078;-42
2022/10/12 04:50:03;;;;;;;66.07;30.63;;;;;;;19.53;100.00;96915.72;4966478;28;20086;-44
2022/10/12 04:52:32;;;;;;;75.35;30.77;;;;;;;19.38;100.00;96910.44;4961270;28;20094;-41
2022/10/12 04:55:00;;;;;;;78.72;32.72;;;;;;;18.92;100.00;96913.34;4968434;28;20078;-46
2022/10/12 04:57:29;;;;;;;85.15;33.05;;;;;;;19.29;100.00;96911.56;4959087;28;20078;-45
2022/10/12 04:59:57;;;;;;;78.63;32.80;;;;;;;19.06;100.00;96911.69;4962918;28;20078;-45
2022/10/12 05:02:25;;;;;;;84.45;33.42;;;;;;;18.80;100.00;96911.34;4963327;28;20091;-39
2022/10/12 05:04:54;;;;;;;81.70;32.97;;;;;;;18.90;100.00;96912.72;4967213;28;20572;-44
2022/10/12 05:07:24;;;;;;;81.22;31.98;;;;;;;19.87;100.00;96911.56;4957286;28;20090;-45
2022/10/12 05:09:52;;;;;;;66.32;32.53;;;;;;;20.21;100.00;96901.97;4959402;28;20499;-43
2022/10/12 05:12:20;;;;;;;83.35;32.70;;;;;;;20.01;100.00;96907.16;4957993;28;20122;-41
2022/10/12 05:14:49;;;;;;;68.88;31.27;;;;;;;19.63;100.00;96912.78;4961138;28;20093;-45
2022/10/12 05:17:17;;;;;;;86.22;32.25;;;;;;;19.73;100.00;96909.78;4965938;28;20083;-43
2022/10/12 05:19:45;;;;;;;82.00;31.67;;;;;;;20.14;100.00;96907.28;4969210;28;20089;-40
2022/10/12 05:22:17;;;;;;;79.50;33.40;;;;;;;19.88;100.00;96913.22;4962338;28;20083;-41
2022/10/12 05:24:47;;;;;;;76.18;30.15;;;;;;;20.18;100.00;96919.25;4964973;28;20085;-43
2022/10/12 05:27:21;;;;;;;85.63;30.88;;;;;;;20.01;100.00;96923.22;4963703;28;20535;-47
2022/10/12 05:29:49;;;;;;;89.70;32.97;;;;;;;20.20;100.00;96927.06;4965841;28;20051;-42
2022/10/12 05:32:17;;;;;;;84.00;31.42;;;;;;;20.20;100.00;96927.06;4964084;28;20097;-42
2022/10/12 05:34:46;;;;;;;78.28;30.55;;;;;;;20.54;100.00;96926.34;4960467;28;20090;-42
2022/10/12 05:37:14;;;;;;;79.00;31.13;;;;;;;20.62;100.00;96929.69;4959883;28;20093;-46
2022/10/12 05:39:42;;;;;;;79.10;31.83;;;;;;;20.57;100.00;96933.97;4960648;28;20082;-45
2022/10/12 05:42:12;;;;;;;81.07;30.90;;;;;;;20.63;100.00;96927.84;4959658;28;20510;-42
2022/10/12 05:44:40;;;;;;;78.13;31.35;;;;;;;20.42;100.00;96931.38;4961629;28;20082;-45
2022/10/12 05:47:09;;;;;;;74.10;30.35;;;;;;;20.18;100.00;96932.63;4959451;28;20093;-41
2022/10/12 05:49:37;;;;;;;84.97;31.83;;;;;;;20.57;100.00;96926.75;4962637;28;20086;-43
2022/10/12 05:52:05;;;;;;;80.30;31.30;;;;;;;20.73;100.00;96928.31;4958967;28;20081;-42
2022/10/12 05:54:34;;;;;;;78.10;30.50;;;;;;;20.85;100.00;96928.59;4961870;28;20058;-41
2022/10/12 05:57:02;;;;;;;73.57;31.20;;;;;;;20.87;100.00;96934.59;4961184;28;20113;-47
2022/10/12 05:59:32;;;;;;;79.20;31.83;;;;;;;20.75;100.00;96925.44;4960716;28;20149;-42
2022/10/12 06:02:00;;;;;;;75.07;31.23;;;;;;;20.49;100.00;96928.75;4958316;28;20081;-42
2022/10/12 06:04:28;;;;;;;99.15;33.08;;;;;;;20.25;100.00;96930.84;4958579;28;20534;-42
2022/10/12 06:06:57;;;;;;;85.82;31.83;;;;;;;20.77;100.00;96931.44;4959479;28;20082;-46
2022/10/12 06:09:25;;;;;;;76.93;31.58;;;;;;;20.86;100.00;96938.31;4962984;28;20097;-47
2022/10/12 06:11:54;;;;;;;75.47;31.77;;;;;;;20.72;100.00;96947.28;4958652;28;20079;-46
2022/10/12 06:14:22;;;;;;;80.93;30.80;;;;;;;20.57;100.00;96948.19;4967860;28;20485;-43
2022/10/12 06:16:52;;;;;;;85.32;30.40;;;;;;;20.61;100.00;96952.16;4967990;28;20101;-41
2022/10/12 06:19:22;;;;;;;77.70;30.58;;;;;;;20.55;100.00;96942.22;4967303;28;20093;-40
2022/10/12 06:21:50;;;;;;;89.93;31.13;;;;;;;20.70;100.00;96946.66;4962032;28;20077;-45
2022/10/12 06:24:18;;;;;;;80.75;31.08;;;;;;;20.76;100.00;96946.69;4964354;28;20526;-45
2022/10/12 06:26:46;;;;;;;82.85;30.35;;;;;;;20.56;100.00;96951.91;4956440;28;21033;-42
2022/10/12 06:29:16;;;;;;;66.93;29.23;;;;;;;20.52;100.00;96957.88;4958987;28;20090;-44
2022/10/12 06:31:44;;;;;;;69.35;28.90;;;;;;;20.42;100.00;96960.03;4958703;28;20071;-47
2022/10/12 06:34:20;;;;;;;71.75;30.20;;;;;;;20.41;100.00;96958.38;4963654;28;20711;-45
2022/10/12 06:36:49;;;;;;;71.25;30.35;;;;;;;20.51;100.00;96959.72;4955591;28;20093;-43
2022/10/12 06:39:17;;;;;;;68.15;30.00;;;;;;;20.51;100.00;96959.72;4965639;28;20110;-43
2022/10/12 06:41:45;;;;;;;81.65;33.10;;;;;;;20.69;100.00;96950.38;4955308;28;20082;-48
2022/10/12 06:44:14;;;;;;;80.22;32.38;;;;;;;20.80;100.00;96950.63;4953888;28;20082;-46
2022/10/12 06:46:42;;;;;;;69.35;30.48;;;;;;;20.66;100.00;96956.13;4961412;28;20086;-44
2022/10/12 06:49:10;;;;;;;71.43;30.70;;;;;;;20.52;100.00;96965.91;4960101;28;20105;-45
2022/10/12 06:51:40;;;;;;;66.65;29.63;;;;;;;20.22;100.00;96959.84;4955990;28;20143;-50
2022/10/12 06:54:08;;;;;;;64.47;30.27;;;;;;;20.44;100.00;96961.50;4960963;28;20146;-47
2022/10/12 06:56:38;;;;;;;68.18;32.42;;;;;;;20.60;100.00;96957.72;4956309;28;20512;-43
2022/10/12 06:59:06;;;;;;;70.63;35.17;;;;;;;20.41;100.00;96964.56;4959291;28;20083;-44
2022/10/12 07:01:35;;;;;;;72.90;33.28;;;;;;;21.00;100.00;96963.34;4958798;28;20078;-50
2022/10/12 07:04:03;;;;;;;79.13;32.70;;;;;;;20.90;100.00;96960.19;4965470;28;20101;-42
2022/10/12 07:06:34;;;;;;;87.63;35.97;;;;;;;20.69;100.00;96958.41;4955237;28;20698;-38
2022/10/12 07:09:04;;;;;;;78.85;34.05;;;;;;;21.29;100.00;96956.88;4964118;28;20383;-45
2022/10/12 07:11:33;;;;;;;80.72;36.10;;;;;;;21.19;100.00;96965.28;4968125;28;20505;-42
2022/10/12 07:14:01;;;;;;;66.30;32.88;;;;;;;20.87;100.00;96966.75;4971328;28;20089;-41
2022/10/12 07:16:29;;;;;;;69.60;34.15;;;;;;;21.03;100.00;96962.94;4969502;28;20079;-44
2022/10/12 07:18:58;;;;;;;67.25;34.97;;;;;;;21.10;100.00;96964.63;4972671;28;20074;-43
2022/10/12 07:21:26;;;;;;;69.65;34.47;;;;;;;21.13;100.00;96966.09;4966670;28;20098;-42
2022/10/12 07:23:54;;;;;;;73.50;35.05;;;;;;;21.26;100.00;96960.75;4964319;28;20091;-46
2022/10/12 07:26:24;;;;;;;77.50;34.03;;;;;;;21.19;100.00;96967.13;4968505;28;20477;-41
2022/10/12 07:28:52;;;;;;;64.28;32.17;;;;;;;21.29;100.00;96967.59;4971964;28;20082;-45
2022/10/12 07:31:21;;;;;;;69.75;33.13;;;;;;;21.21;100.00;96967.78;4969748;28;20494;-42
2022/10/12 07:33:49;;;;;;;66.63;32.63;;;;;;;21.38;100.00;96974.47;4963451;28;20632;-44
2022/10/12 07:36:17;;;;;;;58.45;31.77;;;;;;;21.63;100.00;96977.47;4970117;28;20097;-41
2022/10/12 07:38:49;;;;;;;62.25;31.42;;;;;;;21.69;100.00;96970.47;4971906;28;20075;-43
2022/10/12 07:41:17;;;;;;;67.15;32.30;;;;;;;21.74;100.00;96976.88;4970252;28;20087;-45
2022/10/12 07:43:47;;;;;;;54.65;29.42;;;;;;;21.74;100.00;96979.53;4968625;28;20093;-42
2022/10/12 07:46:15;;;;;;;48.33;28.43;;;;;;;21.89;100.00;96978.56;4971705;28;20490;-44
2022/10/12 07:48:44;;;;;;;52.50;28.55;;;;;;;21.95;100.00;96981.25;4967361;28;20505;-44
2022/10/12 07:51:18;;;;;;;49.13;26.50;;;;;;;21.93;100.00;96979.81;4971311;28;20513;-44
2022/10/12 07:53:46;;;;;;;44.22;25.88;;;;;;;21.99;100.00;96984.38;4970371;28;20078;-40
2022/10/12 07:56:32;;;;;;;39.88;24.60;;;;;;;22.05;100.00;96986.22;4970418;28;20074;-44
2022/10/12 07:59:02;;;;;;;40.83;25.83;;;;;;;21.79;100.00;96987.84;4970499;28;20481;-43
2022/10/12 08:01:31;;;;;;;46.17;25.25;;;;;;;22.02;100.00;96984.81;4972154;28;20600;-43
2022/10/12 08:04:00;;;;;;;45.17;25.10;;;;;;;22.17;100.00;96991.88;4971997;28;20097;-45
2022/10/12 08:06:34;;;;;;;42.25;23.90;;;;;;;21.83;100.00;96993.63;4969763;28;20105;-41
2022/10/12 08:09:03;;;;;;;43.55;23.80;;;;;;;22.30;100.00;96991.91;4972982;28;20054;-45
2022/10/12 08:11:31;;;;;;;39.28;23.50;;;;;;;22.47;100.00;96985.06;4969579;28;20078;-40
2022/10/12 08:14:00;;;;;;;45.22;24.88;;;;;;;22.90;100.00;96992.69;4968054;28;20074;-42
2022/10/12 08:16:29;;;;;;;38.75;22.25;;;;;;;22.88;100.00;96992.09;4967655;28;20074;-40
2022/10/12 08:18:59;;;;;;;37.67;23.07;;;;;;;22.86;100.00;96994.13;4971971;28;20113;-45
2022/10/12 08:21:28;;;;;;;39.53;22.35;;;;;;;22.70;100.00;96994.56;4972265;28;20089;-42
2022/10/12 08:23:56;;;;;;;36.67;22.63;;;;;;;22.45;100.00;96989.00;4971601;28;20550;-45
2022/10/12 08:26:24;;;;;;;36.88;22.83;;;;;;;22.69;100.00;96987.53;4970947;28;20194;-42
2022/10/12 08:28:53;;;;;;;33.78;22.10;;;;;;;22.07;100.00;96986.88;4972222;28;20491;-42
2022/10/12 08:31:22;;;;;;;32.10;21.13;;;;;;;21.30;100.00;96993.38;4970194;28;20093;-43
2022/10/12 08:33:51;;;;;;;36.70;21.13;;;;;;;22.40;100.00;96984.25;4970390;28;20074;-47
2022/10/12 08:36:37;;;;;;;28.63;19.95;;;;;;;22.68;100.00;96988.59;4972046;28;20070;-45
2022/10/12 08:39:07;;;;;;;32.13;19.50;;;;;;;22.77;100.00;96987.31;4971180;28;20094;-43
2022/10/12 08:41:47;;;;;;;36.38;21.20;;;;;;;22.30;100.00;96988.34;4967449;28;20109;-41
2022/10/12 08:44:18;;;;;;;;;;;;;;;22.34;100.00;96989.63;4970714;28;20082;-40
2022/10/12 08:46:46;;;;;;;;;;;;;;;22.31;100.00;96990.03;4970460;28;19993;-45
2022/10/12 08:49:19;;;;;;;35.53;20.13;;;;;;;22.43;100.00;96999.13;4970926;28;19965;-41
2022/10/12 08:51:50;;;;;;;29.77;20.13;;;;;;;22.54;100.00;96993.13;4969715;28;20078;-43
2022/10/12 08:54:20;;;;;;;32.95;20.92;;;;;;;22.05;100.00;97000.47;4967435;28;20082;-43
2022/10/12 08:56:49;;;;;;;30.27;20.20;;;;;;;22.72;100.00;97003.25;4962384;28;20477;-44
2022/10/12 08:59:18;;;;;;;33.92;21.58;;;;;;;22.78;100.00;97001.59;4964902;28;20210;-41
2022/10/12 09:01:57;;;;;;;34.92;22.73;;;;;;;22.75;100.00;96992.09;4964867;28;20079;-46
2022/10/12 09:04:37;;;;;;;35.60;22.92;;;;;;;22.86;100.00;96994.13;4964473;28;20075;-42
2022/10/12 09:07:10;;;;;;;35.60;22.55;;;;;;;22.41;100.00;96995.81;4964501;28;20103;-43
2022/10/12 09:09:49;;;;;;;37.40;23.13;;;;;;;22.13;100.00;97004.88;4963059;28;20082;-42
2022/10/12 09:12:28;;;;;;;35.67;22.30;;;;;;;22.58;100.00;96999.75;4964943;28;20082;-44
2022/10/12 09:15:04;;;;;;;33.50;21.48;;;;;;;22.73;100.00;97002.22;4966462;28;20094;-41
2022/10/12 09:17:37;;;;;;;36.20;22.73;;;;;;;22.44;100.00;96995.41;4964061;28;20083;-42
2022/10/12 09:20:17;;;;;;;39.15;23.58;;;;;;;22.66;100.00;97004.09;4967550;28;20469;-42
2022/10/12 09:22:49;;;;;;;39.25;23.48;;;;;;;22.56;100.00;97007.19;4966052;28;20567;-42
2022/10/12 09:25:18;;;;;;;41.58;23.55;;;;;;;22.87;100.00;96998.47;4965357;28;20560;-45
2022/10/12 09:27:47;;;;;;;37.42;21.33;;;;;;;22.89;100.00;97003.66;4965193;28;20081;-41
2022/10/12 09:30:17;;;;;;;36.33;23.38;;;;;;;22.85;100.00;97008.63;4962918;28;20079;-47
2022/10/12 09:32:54;;;;;;;;;;;;;;;22.10;100.00;97009.81;4966101;28;20572;-47
2022/10/12 09:35:24;;;;;;;41.53;23.90;;;;;;;21.49;100.00;97006.09;4964362;28;19976;-40
2022/10/12 09:37:53;;;;;;;37.80;22.98;;;;;;;21.85;100.00;97007.69;4968024;28;20078;-42
2022/10/12 09:40:23;;;;;;;36.88;22.48;;;;;;;21.89;100.00;97013.50;4964737;28;20482;-46
2022/10/12 09:42:52;;;;;;;37.95;23.92;;;;;;;22.34;100.00;97005.75;4967162;28;20074;-45
2022/10/12 09:45:21;;;;;;;38.00;23.95;;;;;;;22.02;100.00;97005.44;4967137;28;20093;-41
2022/10/12 09:48:09;;;;;;;38.22;24.30;;;;;;;22.36;100.00;97006.34;4968825;28;20078;-46
2022/10/12 09:50:41;;;;;;;35.80;22.90;;;;;;;22.05;100.00;97008.53;4966745;28;20100;-43
2022/10/12 09:53:14;;;;;;;37.22;23.92;;;;;;;22.62;100.00;97005.53;4967552;28;20086;-38
2022/10/12 09:55:53;;;;;;;33.67;22.88;;;;;;;22.93;100.00;96996.84;4960060;28;20071;-39
2022/10/12 09:58:21;;;;;;;39.47;24.20;;;;;;;23.09;100.00;96987.50;4964954;28;20082;-46
2022/10/12 10:01:20;;;;;;;39.65;23.23;;;;;;;23.50;100.00;96995.22;4964706;28;20078;-43
2022/10/12 10:03:51;;;;;;;37.28;24.27;;;;;;;23.41;100.00;97002.72;4969281;28;20074;-44
2022/10/12 10:06:24;;;;;;;40.08;24.80;;;;;;;23.56;100.00;96999.75;4965231;28;20093;-46
2022/10/12 10:08:55;;;;;;;37.33;24.35;;;;;;;23.59;100.00;96998.50;4966409;28;20082;-46
2022/10/12 10:11:23;;;;;;;;;;;;;;;23.38;100.00;97003.16;4967626;28;20070;-43
2022/10/12 10:13:53;;;;;;;37.17;22.63;;;;;;;23.35;100.00;97002.75;4969141;28;19984;-41
2022/10/12 10:16:23;;;;;;;36.83;23.30;;;;;;;23.54;100.00;97001.88;4972092;28;20086;-41
2022/10/12 10:18:56;;;;;;;37.25;23.58;;;;;;;22.93;100.00;97004.91;4965639;28;20093;-43
2022/10/12 10:21:28;;;;;;;34.88;23.05;;;;;;;23.04;100.00;97004.28;4967975;28;20075;-42
2022/10/12 10:23:58;;;;;;;34.63;21.90;;;;;;;23.50;100.00;97010.56;4968822;28;20740;-44
2022/10/12 10:26:28;;;;;;;34.63;22.93;;;;;;;22.49;100.00;97011.72;4968172;28;20620;-43
2022/10/12 10:28:58;;;;;;;32.63;22.58;;;;;;;22.43;100.00;97007.19;4965652;28;20501;-49
2022/10/12 10:31:28;;;;;;;36.05;23.75;;;;;;;22.69;100.00;97007.19;4968050;28;20178;-44
2022/10/12 10:34:10;;;;;;;37.85;24.27;;;;;;;22.58;100.00;97009.69;4968223;28;20086;-42
2022/10/12 10:36:45;;;;;;;37.88;22.35;;;;;;;22.79;100.00;97005.94;4967827;28;20093;-46
2022/10/12 10:39:19;;;;;;;36.97;22.83;;;;;;;23.05;100.00;96994.34;4966512;28;20089;-41
2022/10/12 10:41:48;;;;;;;37.83;24.00;;;;;;;22.54;100.00;97000.34;4962183;28;20615;-46
2022/10/12 10:44:25;;;;;;;34.35;22.80;;;;;;;22.70;100.00;97000.75;4962891;28;20070;-46
2022/10/12 10:46:54;;;;;;;36.50;23.75;;;;;;;21.97;100.00;97003.38;4962437;28;20090;-44
2022/10/12 10:49:26;;;;;;;35.47;23.17;;;;;;;22.76;100.00;96996.44;4964052;28;20093;-44
2022/10/12 10:51:57;;;;;;;38.10;22.92;;;;;;;22.96;100.00;96994.56;4963583;28;20082;-45
2022/10/12 10:54:28;;;;;;;35.67;24.52;;;;;;;22.23;100.00;96999.13;4964741;28;20078;-44
2022/10/12 10:57:00;;;;;;;40.60;25.35;;;;;;;22.71;100.00;96993.53;4964549;28;20485;-45
2022/10/12 10:59:36;;;;;;;37.28;23.58;;;;;;;23.36;100.00;96990.94;4964013;28;20086;-48
2022/10/12 11:02:16;;;;;;;37.47;23.63;;;;;;;23.51;100.00;96993.38;4959411;28;20106;-43
2022/10/12 11:04:48;;;;;;;39.75;23.15;;;;;;;22.96;100.00;96993.75;4962953;28;20082;-47
2022/10/12 11:07:21;;;;;;;37.33;25.13;;;;;;;22.46;100.00;96991.47;4963530;28;20075;-42
2022/10/12 11:09:53;;;;;;;38.88;24.15;;;;;;;22.57;100.00;96992.69;4966457;28;20473;-46
2022/10/12 11:12:25;;;;;;;43.65;26.42;;;;;;;22.04;100.00;96992.63;4968411;28;20431;-46
2022/10/12 11:15:05;;;;;;;47.05;29.15;;;;;;;21.99;100.00;96993.25;4966343;28;20086;-42
2022/10/12 11:17:37;;;;;;;60.20;36.30;;;;;;;22.79;100.00;96981.75;4970005;28;20075;-46
2022/10/12 11:20:24;;;;;;;43.42;28.00;;;;;;;22.64;100.00;96995.38;4963607;28;20509;-47
2022/10/12 11:22:55;;;;;;;44.83;26.65;;;;;;;22.63;100.00;96986.50;4963515;28;20089;-44
2022/10/12 11:25:27;;;;;;;40.35;26.73;;;;;;;22.90;100.00;96981.91;4967146;28;20082;-41
2022/10/12 11:27:55;;;;;;;44.10;27.38;;;;;;;22.89;100.00;96974.91;4965947;28;20560;-44